Friday, November 16, 2018, 1:11 AM GMT
Back to Local

CYTR, Trenton, Ont.

Location: , , Canada Lat: 44.117
Local Time: 1:11 AM GMT ( 1:11 GMT) Lon: -77.533
Time Zone: GMT Elev: 278 ft

Show me the last for .
Show Coded

Time T Td Feel RH Dir Speed Gust Alt SLP Vis Weather Sky Remarks
2018-11-16 00:00 30 30 23 100 100° 7 - 30.15 30.16 1 -SN OVC009 None
2018-11-15 23:26 30 30 25 100 90° 5 - 30.16 30.18 1 -SN OVC005 None
2018-11-15 23:00 30 30 27 100 100° 3 - 30.18 30.20 1 -SN OVC010 None
2018-11-15 22:33 32 27 27 80 120° 5 - 30.19 30.21 3 -SN OVC010 None
2018-11-15 22:25 32 25 26 74 130° 6 - 30.20 30.21 6 -SN BKN015 OVC025 None
2018-11-15 22:18 32 25 26 74 120° 6 - 30.20 30.21 12 -SN FEW025 OVC100 None
2018-11-15 22:00 34 25 29 69 130° 6 - 30.20 30.22 15 FEW025 OVC100 None
2018-11-15 21:00 32 23 26 68 140° 7 - 30.22 30.24 15 FEW026 OVC100 None
2018-11-15 20:00 32 21 25 63 120° 8 - 30.25 30.27 15 SCT028 OVC100 None
2018-11-15 19:00 32 19 25 59 130° 8 - 30.28 30.30 15 FEW028 OVC100 None
2018-11-15 18:00 32 19 25 59 110° 8 - 30.28 30.29 15 FEW028 BKN100 OVC250 Pressure falling rapidly
2018-11-15 17:00 32 19 24 59 100° 9 - 30.35 30.36 15 FEW028 SCT090 OVC250 Pressure falling rapidly
2018-11-15 16:00 28 19 20 68 80° 8 - 30.40 30.42 15 SCT028 OVC090 None
2018-11-15 15:00 25 18 17 73 70° 7 - 30.46 30.47 15 BKN028 OVC090 None
2018-11-15 14:00 21 14 12 73 60° 8 - 30.48 30.50 15 FEW025 OVC250 None
2018-11-15 13:00 19 12 9 73 60° 9 - 30.51 30.53 15 FEW025 OVC250 None
2018-11-15 12:00 19 12 9 73 50° 8 - 30.52 30.54 15 FEW025 OVC250 None
2018-11-15 11:00 18 10 6 72 50° 9 - 30.51 30.53 15 FEW027 OVC250 None
2018-11-15 10:00 18 9 7 67 50° 8 - 30.54 30.56 15 FEW023 OVC250 None
2018-11-15 09:00 18 9 7 67 50° 8 - 30.56 30.58 15 FEW023 BKN250 None
2018-11-15 08:00 18 10 8 72 60° 7 - 30.58 30.60 15 FEW023 SCT250 None
2018-11-15 07:00 18 10 9 72 60° 6 - 30.59 30.60 15 FEW030 OVC250 None
2018-11-15 06:00 18 12 8 78 50° 7 - 30.59 30.61 15 FEW030 OVC250 None
2018-11-15 05:00 19 10 11 67 60° 6 - 30.59 30.61 15 OVC250 None
2018-11-15 04:00 18 12 11 78 40° 5 - 30.59 30.61 15 OVC250 None
2018-11-15 03:00 18 12 - 78 350° 2 - 30.59 30.61 15 BKN250 None
2018-11-15 02:00 19 10 14 67 340° 3 - 30.58 30.60 15 SCT250 None

Support USWX by starting your Amazon purchase here.